sensor_id;sensor_type;location;lat;lon;timestamp;P1;durP1;ratioP1;P2;durP2;ratioP2
2674;SDS011;1347;42.122;24.746;2023-10-19T00:00:54;25.27;;;19.40;;
2674;SDS011;1347;42.122;24.746;2023-10-19T00:03:21;22.70;;;20.40;;
2674;SDS011;1347;42.122;24.746;2023-10-19T00:05:49;21.13;;;18.83;;
2674;SDS011;1347;42.122;24.746;2023-10-19T00:08:15;23.03;;;19.17;;
2674;SDS011;1347;42.122;24.746;2023-10-19T00:10:45;20.93;;;18.73;;
2674;SDS011;1347;42.122;24.746;2023-10-19T00:13:13;21.00;;;18.80;;
2674;SDS011;1347;42.122;24.746;2023-10-19T00:15:45;22.30;;;19.77;;
2674;SDS011;1347;42.122;24.746;2023-10-19T00:18:16;25.30;;;17.83;;
2674;SDS011;1347;42.122;24.746;2023-10-19T00:20:49;21.63;;;19.30;;
2674;SDS011;1347;42.122;24.746;2023-10-19T00:23:17;24.17;;;19.17;;
2674;SDS011;1347;42.122;24.746;2023-10-19T00:25:50;20.73;;;18.53;;
2674;SDS011;1347;42.122;24.746;2023-10-19T00:28:16;22.17;;;19.33;;
2674;SDS011;1347;42.122;24.746;2023-10-19T00:30:43;22.33;;;18.77;;
2674;SDS011;1347;42.122;24.746;2023-10-19T00:33:13;24.63;;;19.53;;
2674;SDS011;1347;42.122;24.746;2023-10-19T00:35:45;20.90;;;17.30;;
2674;SDS011;1347;42.122;24.746;2023-10-19T00:38:24;21.60;;;18.07;;
2674;SDS011;1347;42.122;24.746;2023-10-19T00:41:04;21.10;;;18.77;;
2674;SDS011;1347;42.122;24.746;2023-10-19T00:43:37;22.07;;;18.60;;
2674;SDS011;1347;42.122;24.746;2023-10-19T00:46:09;24.50;;;19.90;;
2674;SDS011;1347;42.122;24.746;2023-10-19T00:48:40;21.10;;;18.83;;
2674;SDS011;1347;42.122;24.746;2023-10-19T00:51:10;20.67;;;18.13;;
2674;SDS011;1347;42.122;24.746;2023-10-19T00:53:51;23.10;;;18.30;;
2674;SDS011;1347;42.122;24.746;2023-10-19T00:56:19;24.97;;;18.50;;
2674;SDS011;1347;42.122;24.746;2023-10-19T00:58:48;21.33;;;18.63;;
2674;SDS011;1347;42.122;24.746;2023-10-19T01:01:21;23.43;;;18.70;;
2674;SDS011;1347;42.122;24.746;2023-10-19T01:03:53;20.30;;;17.83;;
2674;SDS011;1347;42.122;24.746;2023-10-19T01:06:21;20.93;;;18.73;;
2674;SDS011;1347;42.122;24.746;2023-10-19T01:08:48;24.33;;;19.57;;
2674;SDS011;1347;42.122;24.746;2023-10-19T01:11:16;22.50;;;18.30;;
2674;SDS011;1347;42.122;24.746;2023-10-19T01:13:46;21.57;;;18.60;;
2674;SDS011;1347;42.122;24.746;2023-10-19T01:16:13;22.43;;;18.17;;
2674;SDS011;1347;42.122;24.746;2023-10-19T01:18:49;24.40;;;20.80;;
2674;SDS011;1347;42.122;24.746;2023-10-19T01:21:19;21.07;;;18.60;;
2674;SDS011;1347;42.122;24.746;2023-10-19T01:23:52;26.50;;;19.77;;
2674;SDS011;1347;42.122;24.746;2023-10-19T01:26:18;23.17;;;19.33;;
2674;SDS011;1347;42.122;24.746;2023-10-19T01:28:51;27.80;;;20.13;;
2674;SDS011;1347;42.122;24.746;2023-10-19T01:31:24;22.10;;;19.37;;
2674;SDS011;1347;42.122;24.746;2023-10-19T01:34:02;27.10;;;20.27;;
2674;SDS011;1347;42.122;24.746;2023-10-19T01:36:31;21.43;;;18.33;;
2674;SDS011;1347;42.122;24.746;2023-10-19T01:39:06;28.93;;;18.90;;
2674;SDS011;1347;42.122;24.746;2023-10-19T01:41:36;24.13;;;18.10;;
2674;SDS011;1347;42.122;24.746;2023-10-19T01:44:03;22.13;;;18.40;;
2674;SDS011;1347;42.122;24.746;2023-10-19T01:46:32;22.10;;;19.13;;
2674;SDS011;1347;42.122;24.746;2023-10-19T01:48:59;29.80;;;20.23;;
2674;SDS011;1347;42.122;24.746;2023-10-19T01:51:28;25.50;;;19.83;;
2674;SDS011;1347;42.122;24.746;2023-10-19T01:53:55;21.73;;;18.37;;
2674;SDS011;1347;42.122;24.746;2023-10-19T01:56:24;21.93;;;18.90;;
2674;SDS011;1347;42.122;24.746;2023-10-19T01:58:50;26.30;;;19.20;;
2674;SDS011;1347;42.122;24.746;2023-10-19T02:01:17;25.40;;;19.77;;
2674;SDS011;1347;42.122;24.746;2023-10-19T02:03:54;20.13;;;17.50;;
2674;SDS011;1347;42.122;24.746;2023-10-19T02:06:23;20.73;;;18.00;;
2674;SDS011;1347;42.122;24.746;2023-10-19T02:08:52;26.10;;;19.07;;
2674;SDS011;1347;42.122;24.746;2023-10-19T02:11:24;21.13;;;17.93;;
2674;SDS011;1347;42.122;24.746;2023-10-19T02:13:52;23.60;;;18.30;;
2674;SDS011;1347;42.122;24.746;2023-10-19T02:16:21;21.07;;;18.77;;
2674;SDS011;1347;42.122;24.746;2023-10-19T02:18:47;23.83;;;20.23;;
2674;SDS011;1347;42.122;24.746;2023-10-19T02:21:15;25.43;;;17.03;;
2674;SDS011;1347;42.122;24.746;2023-10-19T02:23:47;18.93;;;17.03;;
2674;SDS011;1347;42.122;24.746;2023-10-19T02:26:16;22.90;;;18.07;;
2674;SDS011;1347;42.122;24.746;2023-10-19T02:28:44;24.57;;;19.73;;
2674;SDS011;1347;42.122;24.746;2023-10-19T02:31:11;22.10;;;19.43;;
2674;SDS011;1347;42.122;24.746;2023-10-19T02:33:40;22.80;;;16.10;;
2674;SDS011;1347;42.122;24.746;2023-10-19T02:36:10;20.97;;;18.67;;
2674;SDS011;1347;42.122;24.746;2023-10-19T02:38:38;27.97;;;19.63;;
2674;SDS011;1347;42.122;24.746;2023-10-19T02:41:13;23.60;;;17.33;;
2674;SDS011;1347;42.122;24.746;2023-10-19T02:43:40;21.03;;;18.60;;
2674;SDS011;1347;42.122;24.746;2023-10-19T02:46:12;22.83;;;18.40;;
2674;SDS011;1347;42.122;24.746;2023-10-19T02:48:39;21.80;;;18.03;;
2674;SDS011;1347;42.122;24.746;2023-10-19T02:51:10;19.73;;;17.53;;
2674;SDS011;1347;42.122;24.746;2023-10-19T02:53:37;23.20;;;18.27;;
2674;SDS011;1347;42.122;24.746;2023-10-19T02:56:11;17.50;;;15.50;;
2674;SDS011;1347;42.122;24.746;2023-10-19T02:58:40;18.53;;;16.17;;
2674;SDS011;1347;42.122;24.746;2023-10-19T03:01:17;23.63;;;16.60;;
2674;SDS011;1347;42.122;24.746;2023-10-19T03:03:48;19.80;;;17.73;;
2674;SDS011;1347;42.122;24.746;2023-10-19T03:06:19;18.43;;;16.53;;
2674;SDS011;1347;42.122;24.746;2023-10-19T03:08:46;19.10;;;17.07;;
2674;SDS011;1347;42.122;24.746;2023-10-19T03:11:13;18.07;;;15.60;;
2674;SDS011;1347;42.122;24.746;2023-10-19T03:13:41;19.63;;;16.40;;
2674;SDS011;1347;42.122;24.746;2023-10-19T03:16:08;19.50;;;17.10;;
2674;SDS011;1347;42.122;24.746;2023-10-19T03:18:37;19.83;;;17.00;;
2674;SDS011;1347;42.122;24.746;2023-10-19T03:21:04;19.80;;;17.67;;
2674;SDS011;1347;42.122;24.746;2023-10-19T03:23:31;20.37;;;17.20;;
2674;SDS011;1347;42.122;24.746;2023-10-19T03:25:59;20.90;;;16.80;;
2674;SDS011;1347;42.122;24.746;2023-10-19T03:28:52;19.30;;;15.63;;
2674;SDS011;1347;42.122;24.746;2023-10-19T03:31:21;19.10;;;16.60;;
2674;SDS011;1347;42.122;24.746;2023-10-19T03:33:51;18.97;;;15.13;;
2674;SDS011;1347;42.122;24.746;2023-10-19T03:36:24;22.20;;;17.17;;
2674;SDS011;1347;42.122;24.746;2023-10-19T03:38:52;20.37;;;16.63;;
2674;SDS011;1347;42.122;24.746;2023-10-19T03:41:19;20.60;;;16.97;;
2674;SDS011;1347;42.122;24.746;2023-10-19T03:43:51;18.47;;;16.50;;
2674;SDS011;1347;42.122;24.746;2023-10-19T03:46:19;18.53;;;16.50;;
2674;SDS011;1347;42.122;24.746;2023-10-19T03:48:54;20.80;;;17.87;;
2674;SDS011;1347;42.122;24.746;2023-10-19T03:51:24;20.10;;;16.50;;
2674;SDS011;1347;42.122;24.746;2023-10-19T03:53:58;21.17;;;17.27;;
2674;SDS011;1347;42.122;24.746;2023-10-19T03:56:26;19.03;;;16.83;;
2674;SDS011;1347;42.122;24.746;2023-10-19T03:58:58;21.10;;;17.77;;
2674;SDS011;1347;42.122;24.746;2023-10-19T04:01:25;18.40;;;16.50;;
2674;SDS011;1347;42.122;24.746;2023-10-19T04:03:54;20.23;;;17.27;;
2674;SDS011;1347;42.122;24.746;2023-10-19T04:06:22;20.23;;;18.13;;
2674;SDS011;1347;42.122;24.746;2023-10-19T04:08:49;23.50;;;17.73;;
2674;SDS011;1347;42.122;24.746;2023-10-19T04:11:17;22.67;;;18.70;;
2674;SDS011;1347;42.122;24.746;2023-10-19T04:13:57;20.23;;;18.13;;
2674;SDS011;1347;42.122;24.746;2023-10-19T04:16:28;20.73;;;18.63;;
2674;SDS011;1347;42.122;24.746;2023-10-19T04:18:57;21.63;;;18.20;;
2674;SDS011;1347;42.122;24.746;2023-10-19T04:21:24;21.13;;;18.87;;
2674;SDS011;1347;42.122;24.746;2023-10-19T04:23:51;24.50;;;18.23;;
2674;SDS011;1347;42.122;24.746;2023-10-19T04:26:18;21.73;;;18.93;;
2674;SDS011;1347;42.122;24.746;2023-10-19T04:28:45;23.23;;;20.40;;
2674;SDS011;1347;42.122;24.746;2023-10-19T04:31:15;21.33;;;19.20;;
2674;SDS011;1347;42.122;24.746;2023-10-19T04:33:44;28.83;;;20.33;;
2674;SDS011;1347;42.122;24.746;2023-10-19T04:36:16;20.27;;;17.87;;
2674;SDS011;1347;42.122;24.746;2023-10-19T04:38:46;26.80;;;20.03;;
2674;SDS011;1347;42.122;24.746;2023-10-19T04:41:13;21.80;;;19.50;;
2674;SDS011;1347;42.122;24.746;2023-10-19T04:43:40;28.83;;;19.83;;
2674;SDS011;1347;42.122;24.746;2023-10-19T04:46:15;23.70;;;18.57;;
2674;SDS011;1347;42.122;24.746;2023-10-19T04:48:43;20.50;;;18.40;;
2674;SDS011;1347;42.122;24.746;2023-10-19T04:51:11;23.43;;;18.50;;
2674;SDS011;1347;42.122;24.746;2023-10-19T04:53:39;20.83;;;18.47;;
2674;SDS011;1347;42.122;24.746;2023-10-19T04:56:07;23.83;;;19.90;;
2674;SDS011;1347;42.122;24.746;2023-10-19T04:58:35;20.93;;;18.73;;
2674;SDS011;1347;42.122;24.746;2023-10-19T05:01:02;30.20;;;18.90;;
2674;SDS011;1347;42.122;24.746;2023-10-19T05:03:30;22.77;;;18.40;;
2674;SDS011;1347;42.122;24.746;2023-10-19T05:05:57;22.23;;;18.43;;
2674;SDS011;1347;42.122;24.746;2023-10-19T05:08:24;23.80;;;18.80;;
2674;SDS011;1347;42.122;24.746;2023-10-19T05:10:54;21.70;;;19.13;;
2674;SDS011;1347;42.122;24.746;2023-10-19T05:13:24;26.50;;;17.90;;
2674;SDS011;1347;42.122;24.746;2023-10-19T05:15:52;23.90;;;19.40;;
2674;SDS011;1347;42.122;24.746;2023-10-19T05:18:19;28.50;;;19.70;;
2674;SDS011;1347;42.122;24.746;2023-10-19T05:20:46;26.33;;;20.87;;
2674;SDS011;1347;42.122;24.746;2023-10-19T05:23:14;21.70;;;18.97;;
2674;SDS011;1347;42.122;24.746;2023-10-19T05:25:41;19.33;;;17.30;;
2674;SDS011;1347;42.122;24.746;2023-10-19T05:28:10;23.70;;;18.13;;
2674;SDS011;1347;42.122;24.746;2023-10-19T05:30:36;22.97;;;17.70;;
2674;SDS011;1347;42.122;24.746;2023-10-19T05:33:03;23.23;;;18.67;;
2674;SDS011;1347;42.122;24.746;2023-10-19T05:35:31;24.13;;;18.90;;
2674;SDS011;1347;42.122;24.746;2023-10-19T05:38:00;24.30;;;18.83;;
2674;SDS011;1347;42.122;24.746;2023-10-19T05:40:28;24.20;;;18.13;;
2674;SDS011;1347;42.122;24.746;2023-10-19T05:42:56;19.80;;;17.70;;
2674;SDS011;1347;42.122;24.746;2023-10-19T05:45:27;25.53;;;19.60;;
2674;SDS011;1347;42.122;24.746;2023-10-19T05:47:55;23.17;;;20.77;;
2674;SDS011;1347;42.122;24.746;2023-10-19T05:50:22;24.17;;;20.30;;
2674;SDS011;1347;42.122;24.746;2023-10-19T05:52:49;25.13;;;21.33;;
2674;SDS011;1347;42.122;24.746;2023-10-19T05:55:17;31.90;;;19.97;;
2674;SDS011;1347;42.122;24.746;2023-10-19T05:57:46;23.03;;;18.17;;
2674;SDS011;1347;42.122;24.746;2023-10-19T06:00:13;21.40;;;18.40;;
2674;SDS011;1347;42.122;24.746;2023-10-19T06:02:43;20.73;;;18.30;;
2674;SDS011;1347;42.122;24.746;2023-10-19T06:05:10;28.30;;;18.10;;
2674;SDS011;1347;42.122;24.746;2023-10-19T06:07:40;26.73;;;18.80;;
2674;SDS011;1347;42.122;24.746;2023-10-19T06:10:08;24.80;;;20.20;;
2674;SDS011;1347;42.122;24.746;2023-10-19T06:12:40;25.77;;;20.50;;
2674;SDS011;1347;42.122;24.746;2023-10-19T06:15:08;22.10;;;19.50;;
2674;SDS011;1347;42.122;24.746;2023-10-19T06:17:36;28.00;;;21.37;;
2674;SDS011;1347;42.122;24.746;2023-10-19T06:20:06;26.33;;;18.60;;
2674;SDS011;1347;42.122;24.746;2023-10-19T06:22:34;29.43;;;20.40;;
2674;SDS011;1347;42.122;24.746;2023-10-19T06:25:01;26.87;;;18.70;;
2674;SDS011;1347;42.122;24.746;2023-10-19T06:27:30;21.50;;;18.63;;
2674;SDS011;1347;42.122;24.746;2023-10-19T06:29:57;27.03;;;18.80;;
2674;SDS011;1347;42.122;24.746;2023-10-19T06:32:24;20.60;;;18.50;;
2674;SDS011;1347;42.122;24.746;2023-10-19T06:34:52;18.60;;;16.60;;
2674;SDS011;1347;42.122;24.746;2023-10-19T06:37:21;19.87;;;16.50;;
2674;SDS011;1347;42.122;24.746;2023-10-19T06:39:47;19.60;;;17.33;;
2674;SDS011;1347;42.122;24.746;2023-10-19T06:42:16;24.90;;;18.67;;
2674;SDS011;1347;42.122;24.746;2023-10-19T06:44:43;24.63;;;17.27;;
2674;SDS011;1347;42.122;24.746;2023-10-19T06:47:10;21.70;;;17.57;;
2674;SDS011;1347;42.122;24.746;2023-10-19T06:49:38;18.53;;;14.87;;
2674;SDS011;1347;42.122;24.746;2023-10-19T06:52:06;18.93;;;14.77;;
2674;SDS011;1347;42.122;24.746;2023-10-19T06:54:39;15.53;;;13.93;;
2674;SDS011;1347;42.122;24.746;2023-10-19T06:57:06;15.90;;;14.30;;
2674;SDS011;1347;42.122;24.746;2023-10-19T06:59:33;21.13;;;15.37;;
2674;SDS011;1347;42.122;24.746;2023-10-19T07:02:00;17.00;;;15.10;;
2674;SDS011;1347;42.122;24.746;2023-10-19T07:04:28;15.83;;;13.40;;
2674;SDS011;1347;42.122;24.746;2023-10-19T07:06:55;13.97;;;12.53;;
2674;SDS011;1347;42.122;24.746;2023-10-19T07:09:22;14.47;;;13.00;;
2674;SDS011;1347;42.122;24.746;2023-10-19T07:11:51;14.07;;;12.77;;
2674;SDS011;1347;42.122;24.746;2023-10-19T07:14:22;13.13;;;12.00;;
2674;SDS011;1347;42.122;24.746;2023-10-19T07:16:49;13.20;;;12.07;;
2674;SDS011;1347;42.122;24.746;2023-10-19T07:19:17;14.30;;;12.77;;
2674;SDS011;1347;42.122;24.746;2023-10-19T07:21:45;15.87;;;14.17;;
2674;SDS011;1347;42.122;24.746;2023-10-19T07:24:18;14.13;;;12.93;;
2674;SDS011;1347;42.122;24.746;2023-10-19T07:26:50;15.33;;;14.03;;
2674;SDS011;1347;42.122;24.746;2023-10-19T07:29:28;15.27;;;13.63;;
2674;SDS011;1347;42.122;24.746;2023-10-19T07:31:57;14.50;;;13.30;;
2674;SDS011;1347;42.122;24.746;2023-10-19T07:34:24;15.43;;;14.03;;
2674;SDS011;1347;42.122;24.746;2023-10-19T07:36:53;17.20;;;14.40;;
2674;SDS011;1347;42.122;24.746;2023-10-19T07:39:21;14.40;;;13.10;;
2674;SDS011;1347;42.122;24.746;2023-10-19T07:41:48;16.20;;;14.70;;
2674;SDS011;1347;42.122;24.746;2023-10-19T07:44:16;17.13;;;15.47;;
2674;SDS011;1347;42.122;24.746;2023-10-19T07:46:43;15.30;;;13.73;;
2674;SDS011;1347;42.122;24.746;2023-10-19T07:49:10;14.67;;;13.17;;
2674;SDS011;1347;42.122;24.746;2023-10-19T07:51:40;16.40;;;14.80;;
2674;SDS011;1347;42.122;24.746;2023-10-19T07:54:11;16.03;;;14.67;;
2674;SDS011;1347;42.122;24.746;2023-10-19T07:56:38;19.10;;;14.10;;
2674;SDS011;1347;42.122;24.746;2023-10-19T07:59:05;15.40;;;14.00;;
2674;SDS011;1347;42.122;24.746;2023-10-19T08:01:34;20.30;;;16.50;;
2674;SDS011;1347;42.122;24.746;2023-10-19T08:04:01;15.30;;;14.00;;
2674;SDS011;1347;42.122;24.746;2023-10-19T08:06:28;17.93;;;14.80;;
2674;SDS011;1347;42.122;24.746;2023-10-19T08:08:56;16.30;;;14.77;;
2674;SDS011;1347;42.122;24.746;2023-10-19T08:11:23;14.70;;;13.30;;
2674;SDS011;1347;42.122;24.746;2023-10-19T08:13:50;15.43;;;13.83;;
2674;SDS011;1347;42.122;24.746;2023-10-19T08:16:17;14.67;;;13.10;;
2674;SDS011;1347;42.122;24.746;2023-10-19T08:18:45;16.37;;;14.97;;
2674;SDS011;1347;42.122;24.746;2023-10-19T08:21:12;16.87;;;15.17;;
2674;SDS011;1347;42.122;24.746;2023-10-19T08:23:39;20.40;;;16.47;;
2674;SDS011;1347;42.122;24.746;2023-10-19T08:26:08;16.27;;;14.77;;
2674;SDS011;1347;42.122;24.746;2023-10-19T08:28:35;17.60;;;15.90;;
2674;SDS011;1347;42.122;24.746;2023-10-19T08:31:02;17.40;;;15.97;;
2674;SDS011;1347;42.122;24.746;2023-10-19T08:33:35;20.67;;;18.70;;
2674;SDS011;1347;42.122;24.746;2023-10-19T08:36:05;19.17;;;17.33;;
2674;SDS011;1347;42.122;24.746;2023-10-19T08:38:32;18.37;;;16.57;;
2674;SDS011;1347;42.122;24.746;2023-10-19T08:41:00;17.60;;;15.80;;
2674;SDS011;1347;42.122;24.746;2023-10-19T08:43:28;18.80;;;17.10;;
2674;SDS011;1347;42.122;24.746;2023-10-19T08:45:58;18.10;;;16.37;;
2674;SDS011;1347;42.122;24.746;2023-10-19T08:48:26;18.60;;;16.90;;
2674;SDS011;1347;42.122;24.746;2023-10-19T08:50:54;19.93;;;17.93;;
2674;SDS011;1347;42.122;24.746;2023-10-19T08:53:23;21.47;;;19.37;;
2674;SDS011;1347;42.122;24.746;2023-10-19T08:55:50;19.37;;;17.13;;
2674;SDS011;1347;42.122;24.746;2023-10-19T08:58:19;20.40;;;18.30;;
2674;SDS011;1347;42.122;24.746;2023-10-19T09:00:47;20.27;;;18.20;;
2674;SDS011;1347;42.122;24.746;2023-10-19T09:03:18;20.80;;;18.60;;
2674;SDS011;1347;42.122;24.746;2023-10-19T09:05:47;18.70;;;17.20;;
2674;SDS011;1347;42.122;24.746;2023-10-19T09:08:14;25.37;;;19.20;;
2674;SDS011;1347;42.122;24.746;2023-10-19T09:10:44;23.63;;;19.67;;
2674;SDS011;1347;42.122;24.746;2023-10-19T09:13:12;20.70;;;18.60;;
2674;SDS011;1347;42.122;24.746;2023-10-19T09:15:41;22.20;;;20.27;;
2674;SDS011;1347;42.122;24.746;2023-10-19T09:18:15;23.47;;;20.77;;
2674;SDS011;1347;42.122;24.746;2023-10-19T09:20:43;22.00;;;20.00;;
2674;SDS011;1347;42.122;24.746;2023-10-19T09:23:19;20.30;;;18.50;;
2674;SDS011;1347;42.122;24.746;2023-10-19T09:25:49;22.37;;;20.17;;
2674;SDS011;1347;42.122;24.746;2023-10-19T09:28:17;22.23;;;19.90;;
2674;SDS011;1347;42.122;24.746;2023-10-19T09:30:45;23.07;;;20.67;;
2674;SDS011;1347;42.122;24.746;2023-10-19T09:33:13;32.40;;;25.20;;
2674;SDS011;1347;42.122;24.746;2023-10-19T09:35:43;21.23;;;19.23;;
2674;SDS011;1347;42.122;24.746;2023-10-19T09:38:13;20.40;;;18.07;;
2674;SDS011;1347;42.122;24.746;2023-10-19T09:40:40;19.60;;;17.60;;
2674;SDS011;1347;42.122;24.746;2023-10-19T09:43:14;24.13;;;18.13;;
2674;SDS011;1347;42.122;24.746;2023-10-19T09:45:42;17.83;;;16.13;;
2674;SDS011;1347;42.122;24.746;2023-10-19T09:48:16;18.57;;;14.40;;
2674;SDS011;1347;42.122;24.746;2023-10-19T09:50:48;14.53;;;13.13;;
2674;SDS011;1347;42.122;24.746;2023-10-19T09:53:21;16.93;;;14.63;;
2674;SDS011;1347;42.122;24.746;2023-10-19T09:55:49;15.33;;;13.83;;
2674;SDS011;1347;42.122;24.746;2023-10-19T09:58:23;13.83;;;12.60;;
2674;SDS011;1347;42.122;24.746;2023-10-19T10:00:54;15.40;;;14.00;;
2674;SDS011;1347;42.122;24.746;2023-10-19T10:06:17;15.03;;;13.30;;
2674;SDS011;1347;42.122;24.746;2023-10-19T10:08:54;15.13;;;13.63;;
2674;SDS011;1347;42.122;24.746;2023-10-19T10:11:22;15.90;;;14.30;;
2674;SDS011;1347;42.122;24.746;2023-10-19T10:13:53;18.50;;;16.77;;
2674;SDS011;1347;42.122;24.746;2023-10-19T10:16:22;17.67;;;15.30;;
2674;SDS011;1347;42.122;24.746;2023-10-19T10:18:50;18.60;;;16.80;;
2674;SDS011;1347;42.122;24.746;2023-10-19T10:21:26;18.27;;;16.40;;
2674;SDS011;1347;42.122;24.746;2023-10-19T10:23:55;16.20;;;14.60;;
2674;SDS011;1347;42.122;24.746;2023-10-19T10:26:24;19.03;;;17.13;;
2674;SDS011;1347;42.122;24.746;2023-10-19T10:29:08;15.80;;;14.30;;
2674;SDS011;1347;42.122;24.746;2023-10-19T10:31:41;16.93;;;15.23;;
2674;SDS011;1347;42.122;24.746;2023-10-19T10:34:09;20.93;;;17.97;;
2674;SDS011;1347;42.122;24.746;2023-10-19T10:39:25;18.30;;;16.60;;
2674;SDS011;1347;42.122;24.746;2023-10-19T10:41:55;15.47;;;13.97;;
2674;SDS011;1347;42.122;24.746;2023-10-19T10:44:36;18.13;;;16.20;;
2674;SDS011;1347;42.122;24.746;2023-10-19T10:47:05;14.87;;;13.57;;
2674;SDS011;1347;42.122;24.746;2023-10-19T10:49:33;17.70;;;15.27;;
2674;SDS011;1347;42.122;24.746;2023-10-19T10:52:00;17.50;;;15.90;;
2674;SDS011;1347;42.122;24.746;2023-10-19T10:54:27;18.80;;;16.73;;
2674;SDS011;1347;42.122;24.746;2023-10-19T10:56:54;19.63;;;16.50;;
2674;SDS011;1347;42.122;24.746;2023-10-19T10:59:21;16.60;;;15.00;;
2674;SDS011;1347;42.122;24.746;2023-10-19T11:01:49;18.23;;;16.33;;
2674;SDS011;1347;42.122;24.746;2023-10-19T11:04:16;19.13;;;16.60;;
2674;SDS011;1347;42.122;24.746;2023-10-19T11:06:49;16.70;;;15.20;;
2674;SDS011;1347;42.122;24.746;2023-10-19T11:09:17;17.83;;;16.13;;
2674;SDS011;1347;42.122;24.746;2023-10-19T11:11:47;17.60;;;15.87;;
2674;SDS011;1347;42.122;24.746;2023-10-19T11:14:17;22.30;;;16.73;;
2674;SDS011;1347;42.122;24.746;2023-10-19T11:16:44;17.83;;;16.13;;
2674;SDS011;1347;42.122;24.746;2023-10-19T11:19:12;18.23;;;16.33;;
2674;SDS011;1347;42.122;24.746;2023-10-19T11:21:50;20.10;;;17.60;;
2674;SDS011;1347;42.122;24.746;2023-10-19T11:24:24;18.67;;;15.63;;
2674;SDS011;1347;42.122;24.746;2023-10-19T11:26:51;20.10;;;18.10;;
2674;SDS011;1347;42.122;24.746;2023-10-19T11:29:19;20.60;;;17.60;;
2674;SDS011;1347;42.122;24.746;2023-10-19T11:31:56;19.13;;;17.20;;
2674;SDS011;1347;42.122;24.746;2023-10-19T11:34:26;17.73;;;15.93;;
2674;SDS011;1347;42.122;24.746;2023-10-19T11:36:54;19.77;;;17.83;;
2674;SDS011;1347;42.122;24.746;2023-10-19T11:39:25;20.10;;;18.10;;
2674;SDS011;1347;42.122;24.746;2023-10-19T11:41:52;17.40;;;15.80;;
2674;SDS011;1347;42.122;24.746;2023-10-19T11:44:19;17.40;;;15.80;;
2674;SDS011;1347;42.122;24.746;2023-10-19T11:46:47;18.73;;;16.83;;
2674;SDS011;1347;42.122;24.746;2023-10-19T11:49:14;22.23;;;18.00;;
2674;SDS011;1347;42.122;24.746;2023-10-19T11:51:42;17.23;;;15.43;;
2674;SDS011;1347;42.122;24.746;2023-10-19T11:54:10;15.70;;;14.10;;
2674;SDS011;1347;42.122;24.746;2023-10-19T11:56:37;13.63;;;12.30;;
2674;SDS011;1347;42.122;24.746;2023-10-19T11:59:05;16.10;;;14.43;;
2674;SDS011;1347;42.122;24.746;2023-10-19T12:01:32;15.07;;;13.67;;
2674;SDS011;1347;42.122;24.746;2023-10-19T12:03:59;15.80;;;13.60;;
2674;SDS011;1347;42.122;24.746;2023-10-19T12:06:26;17.33;;;15.77;;
2674;SDS011;1347;42.122;24.746;2023-10-19T12:08:55;17.60;;;15.10;;
2674;SDS011;1347;42.122;24.746;2023-10-19T12:11:24;16.40;;;14.80;;
2674;SDS011;1347;42.122;24.746;2023-10-19T12:13:51;16.60;;;14.90;;
2674;SDS011;1347;42.122;24.746;2023-10-19T12:16:18;16.60;;;14.90;;
2674;SDS011;1347;42.122;24.746;2023-10-19T12:18:49;15.87;;;13.80;;
2674;SDS011;1347;42.122;24.746;2023-10-19T12:21:16;17.47;;;14.73;;
2674;SDS011;1347;42.122;24.746;2023-10-19T12:23:52;19.70;;;14.57;;
2674;SDS011;1347;42.122;24.746;2023-10-19T12:26:23;14.53;;;13.23;;
2674;SDS011;1347;42.122;24.746;2023-10-19T12:28:50;15.00;;;13.50;;
2674;SDS011;1347;42.122;24.746;2023-10-19T12:31:18;14.97;;;13.60;;
2674;SDS011;1347;42.122;24.746;2023-10-19T12:33:47;15.03;;;13.53;;
2674;SDS011;1347;42.122;24.746;2023-10-19T12:36:14;16.23;;;12.87;;
2674;SDS011;1347;42.122;24.746;2023-10-19T12:38:56;13.70;;;12.30;;
2674;SDS011;1347;42.122;24.746;2023-10-19T12:41:25;13.80;;;12.40;;
2674;SDS011;1347;42.122;24.746;2023-10-19T12:43:52;12.63;;;10.80;;
2674;SDS011;1347;42.122;24.746;2023-10-19T12:46:22;10.43;;;9.53;;
2674;SDS011;1347;42.122;24.746;2023-10-19T12:48:50;10.67;;;9.33;;
2674;SDS011;1347;42.122;24.746;2023-10-19T12:51:17;10.50;;;9.60;;
2674;SDS011;1347;42.122;24.746;2023-10-19T12:53:48;11.47;;;10.27;;
2674;SDS011;1347;42.122;24.746;2023-10-19T12:56:17;11.10;;;10.03;;
2674;SDS011;1347;42.122;24.746;2023-10-19T12:58:45;15.83;;;12.07;;
2674;SDS011;1347;42.122;24.746;2023-10-19T13:01:13;12.50;;;11.30;;
2674;SDS011;1347;42.122;24.746;2023-10-19T13:03:43;13.03;;;11.07;;
2674;SDS011;1347;42.122;24.746;2023-10-19T13:06:11;10.90;;;9.33;;
2674;SDS011;1347;42.122;24.746;2023-10-19T13:08:38;12.27;;;9.90;;
2674;SDS011;1347;42.122;24.746;2023-10-19T13:11:06;12.70;;;9.80;;
2674;SDS011;1347;42.122;24.746;2023-10-19T13:13:33;12.10;;;10.83;;
2674;SDS011;1347;42.122;24.746;2023-10-19T13:16:04;10.67;;;9.53;;
2674;SDS011;1347;42.122;24.746;2023-10-19T13:18:34;11.63;;;10.43;;
2674;SDS011;1347;42.122;24.746;2023-10-19T13:21:02;11.40;;;10.40;;
2674;SDS011;1347;42.122;24.746;2023-10-19T13:23:30;11.90;;;10.63;;
2674;SDS011;1347;42.122;24.746;2023-10-19T13:25:59;11.90;;;10.80;;
2674;SDS011;1347;42.122;24.746;2023-10-19T13:28:42;11.47;;;10.37;;
2674;SDS011;1347;42.122;24.746;2023-10-19T13:31:10;14.90;;;12.10;;
2674;SDS011;1347;42.122;24.746;2023-10-19T13:33:39;13.00;;;11.67;;
2674;SDS011;1347;42.122;24.746;2023-10-19T13:36:06;13.23;;;11.40;;
2674;SDS011;1347;42.122;24.746;2023-10-19T13:38:34;13.80;;;11.90;;
2674;SDS011;1347;42.122;24.746;2023-10-19T13:41:02;12.83;;;11.63;;
2674;SDS011;1347;42.122;24.746;2023-10-19T13:43:32;12.67;;;11.27;;
2674;SDS011;1347;42.122;24.746;2023-10-19T13:46:03;13.23;;;11.70;;
2674;SDS011;1347;42.122;24.746;2023-10-19T13:48:32;13.13;;;11.90;;
2674;SDS011;1347;42.122;24.746;2023-10-19T13:50:59;12.70;;;11.50;;
2674;SDS011;1347;42.122;24.746;2023-10-19T13:53:37;15.50;;;11.83;;
2674;SDS011;1347;42.122;24.746;2023-10-19T13:56:06;13.63;;;12.33;;
2674;SDS011;1347;42.122;24.746;2023-10-19T13:58:35;12.03;;;10.93;;
2674;SDS011;1347;42.122;24.746;2023-10-19T14:01:05;14.50;;;11.53;;
2674;SDS011;1347;42.122;24.746;2023-10-19T14:03:37;17.87;;;13.40;;
2674;SDS011;1347;42.122;24.746;2023-10-19T14:06:04;11.47;;;10.30;;
2674;SDS011;1347;42.122;24.746;2023-10-19T14:08:31;12.40;;;11.17;;
2674;SDS011;1347;42.122;24.746;2023-10-19T14:11:01;10.97;;;10.07;;
2674;SDS011;1347;42.122;24.746;2023-10-19T14:13:29;12.83;;;11.60;;
2674;SDS011;1347;42.122;24.746;2023-10-19T14:15:55;16.17;;;12.20;;
2674;SDS011;1347;42.122;24.746;2023-10-19T14:18:22;14.43;;;12.03;;
2674;SDS011;1347;42.122;24.746;2023-10-19T14:20:51;13.33;;;11.83;;
2674;SDS011;1347;42.122;24.746;2023-10-19T14:23:18;12.57;;;11.37;;
2674;SDS011;1347;42.122;24.746;2023-10-19T14:25:45;12.23;;;10.33;;
2674;SDS011;1347;42.122;24.746;2023-10-19T14:28:12;15.67;;;13.70;;
2674;SDS011;1347;42.122;24.746;2023-10-19T14:30:39;13.30;;;11.93;;
2674;SDS011;1347;42.122;24.746;2023-10-19T14:33:06;17.47;;;12.17;;
2674;SDS011;1347;42.122;24.746;2023-10-19T14:35:36;12.87;;;11.53;;
2674;SDS011;1347;42.122;24.746;2023-10-19T14:38:09;13.33;;;12.03;;
2674;SDS011;1347;42.122;24.746;2023-10-19T14:40:39;15.07;;;13.60;;
2674;SDS011;1347;42.122;24.746;2023-10-19T14:43:09;16.53;;;13.07;;
2674;SDS011;1347;42.122;24.746;2023-10-19T14:45:39;17.93;;;11.87;;
2674;SDS011;1347;42.122;24.746;2023-10-19T14:48:08;22.93;;;13.50;;
2674;SDS011;1347;42.122;24.746;2023-10-19T14:50:36;14.43;;;12.93;;
2674;SDS011;1347;42.122;24.746;2023-10-19T14:53:03;15.93;;;14.27;;